Главная страница
METAR-TAF:

METAR-TAF

Аэропорты :

Ботсфьорд, Норвегия

широта: 70-38N, долгота: 029-44E, высота над уровнем моря: 10 м

Текущие метеонаблюдения

Эта сводка был подготовлена 11 минут назад, в 06:50 UTC
Ветер 14 Узел от восточно-северо-восточный
Температура 4°C
Влажность 100%
Давление 998 hPa
Видимость: 4000 м
Отдельные облака на высоте 200 фута
Рассеянная облачность на высоте 400 фута
дымка, небольшой морось

METAR: ENBS 270650Z 06014KT 4000 BR -DZ SCT002 BKN004 04/04 Q0998

Время: 09:01 (07:01 UTC)


TAF: отсутствует

Метеонаблюдения и прогнозы для более 4000 аэропортов (сводки METAR и TAF).

Имеющиеся станции представлены на карте желтыми и красными точками.

Чтобы увидеть название станции, наведите на нее мышь.

Затем щелкните, чтобы увидеть метеонаблюдения и метеопрогнозы.

Управление картой: чтобы увеличить масштаб, щелкните зеленые кнопки с черным крестиком; чтобы уменьшить масштаб, щелкните зеленую кнопку с тире; для просмотра соседних карт щелкайте зеленые стрелки.


METAR-TAF: